Time;durP1;ratioP1;P1;durP2;ratioP2;P2;SDS_P1;SDS_P2;PMS_P1;PMS_P2;Temp;Humidity;BMP_temperature;BMP_pressure;BME280_temperature;BME280_humidity;BME280_pressure;Samples;Min_cycle;Max_cycle;Signal;HPM_P1;HPM_P2
2023/06/26 00:01:45;;;;;;;17.27;14.93;;;22.10;99.90;;;22.66;69.58;94787.28;4988597;28;20466;-58
2023/06/26 00:04:14;;;;;;;23.57;15.47;;;22.20;99.90;;;22.66;69.35;94781.91;4988913;28;20894;-58
2023/06/26 00:06:41;;;;;;;19.50;14.60;;;22.20;99.90;;;22.67;70.25;94783.56;4988961;28;20454;-59
2023/06/26 00:09:09;;;;;;;23.27;15.30;;;22.20;99.90;;;22.67;69.93;94794.28;4994112;28;20483;-59
2023/06/26 00:11:36;;;;;;;19.37;15.53;;;22.20;99.90;;;22.66;70.09;94789.97;4989947;28;20541;-62
2023/06/26 00:14:03;;;;;;;17.03;14.50;;;22.20;99.90;;;22.66;69.44;94779.22;4988798;28;20462;-60
2023/06/26 00:16:32;;;;;;;16.17;12.27;;;22.20;99.90;;;22.65;70.04;94778.41;4988485;28;20450;-56
2023/06/26 00:19:00;;;;;;;18.60;13.77;;;22.20;99.90;;;22.63;70.02;94777.78;4990102;28;20588;-57
2023/06/26 00:21:28;;;;;;;18.20;12.60;;;22.20;99.90;;;22.65;69.50;94782.94;4987999;28;20454;-62
2023/06/26 00:23:55;;;;;;;16.63;13.73;;;22.20;99.90;;;22.64;69.74;94786.69;4988957;28;20503;-62
2023/06/26 00:26:24;;;;;;;18.10;13.70;;;22.20;99.90;;;22.64;69.74;94775.97;4988436;28;20492;-62
2023/06/26 00:28:51;;;;;;;19.10;12.53;;;22.20;99.90;;;22.65;69.92;94778.41;4988606;28;20978;-62
2023/06/26 00:31:18;;;;;;;16.93;12.87;;;22.20;99.90;;;22.64;70.33;94774.09;4988174;28;20969;-61
2023/06/26 00:33:47;;;;;;;18.10;13.73;;;22.20;99.90;;;22.66;69.62;94771.19;4988994;28;20481;-61
2023/06/26 00:36:14;;;;;;;15.47;12.10;;;22.20;99.90;;;22.66;69.52;94771.19;4990140;28;20457;-61
2023/06/26 00:38:41;;;;;;;15.77;11.93;;;22.20;99.90;;;22.64;69.62;94768.72;4988049;28;20454;-59
2023/06/26 00:41:12;;;;;;;15.60;12.00;;;22.20;99.90;;;22.65;69.94;94774.91;4988043;28;20475;-61
2023/06/26 00:43:40;;;;;;;15.93;12.83;;;22.20;99.90;;;22.63;69.60;94771.63;4987653;28;20514;-57
2023/06/26 00:46:10;;;;;;;15.50;11.73;;;22.10;99.90;;;22.63;69.26;94772.44;4987625;28;20511;-56
2023/06/26 00:48:37;;;;;;;19.93;11.77;;;22.20;99.90;;;22.62;69.73;94768.13;4988127;28;21221;-57
2023/06/26 00:51:06;;;;;;;14.37;11.77;;;22.10;99.90;;;22.61;69.93;94773.72;4989600;28;20485;-62
2023/06/26 00:53:33;;;;;;;13.90;12.37;;;22.10;99.90;;;22.59;70.24;94771.25;4990372;28;20458;-58
2023/06/26 00:56:01;;;;;;;14.77;11.70;;;22.10;99.90;;;22.55;69.41;94768.16;4987806;28;20535;-64
2023/06/26 00:58:28;;;;;;;12.87;11.50;;;22.10;99.90;;;22.54;69.52;94763.84;4984440;28;20549;-58
2023/06/26 01:00:55;;;;;;;20.33;10.47;;;22.10;99.90;;;22.54;70.21;94760.34;4984980;28;21464;-62
2023/06/26 01:03:23;;;;;;;13.43;11.80;;;22.00;99.90;;;22.51;70.61;94756.25;4987832;28;20489;-62
2023/06/26 01:05:51;;;;;;;15.50;11.43;;;22.00;99.90;;;22.51;70.18;94761.59;4987768;28;20474;-58
2023/06/26 01:08:19;;;;;;;12.87;10.30;;;22.00;99.90;;;22.49;69.69;94758.31;4988531;28;20450;-59
2023/06/26 01:10:47;;;;;;;14.57;12.50;;;22.00;99.90;;;22.46;70.04;94753.38;4987536;28;21004;-61
2023/06/26 01:13:16;;;;;;;15.77;12.10;;;22.00;99.90;;;22.45;70.08;94740.19;4988554;28;20557;-62
2023/06/26 01:15:43;;;;;;;11.70;10.10;;;22.00;99.90;;;22.43;70.56;94743.09;4987700;28;20478;-57
2023/06/26 01:18:10;;;;;;;11.30;10.10;;;22.00;99.90;;;22.42;69.99;94741.47;4987731;28;20481;-62
2023/06/26 01:20:41;;;;;;;11.27;10.23;;;21.90;99.90;;;22.41;70.60;94739.00;4987057;28;20485;-61
2023/06/26 01:23:21;;;;;;;13.83;10.87;;;21.90;99.90;;;22.38;69.97;94734.88;4987425;28;20675;-57
2023/06/26 01:26:03;;;;;;;14.60;11.00;;;21.90;99.90;;;22.37;69.97;94733.25;4987684;28;20990;-62
2023/06/26 01:28:32;;;;;;;12.20;10.67;;;21.90;99.90;;;22.37;70.13;94738.63;4986653;28;20551;-58
2023/06/26 01:30:59;;;;;;;11.97;10.77;;;21.90;99.90;;;22.37;70.20;94738.63;4986869;28;20477;-63
2023/06/26 01:33:27;;;;;;;12.17;10.90;;;21.90;99.90;;;22.35;69.84;94735.31;4987325;28;20461;-63
2023/06/26 01:35:54;;;;;;;12.73;10.73;;;21.80;99.90;;;22.31;69.86;94731.44;4986796;28;20478;-62
2023/06/26 01:38:23;;;;;;;13.10;10.13;;;21.80;99.90;;;22.28;70.15;94721.94;4983674;28;20465;-63
2023/06/26 01:40:50;;;;;;;12.07;9.83;;;21.80;99.90;;;22.28;70.06;94729.16;4986391;28;20466;-58
2023/06/26 01:43:24;;;;;;;13.40;10.73;;;21.80;99.90;;;22.27;70.31;94727.50;4987612;28;20493;-63
2023/06/26 01:45:55;;;;;;;13.37;10.83;;;21.80;99.90;;;22.27;70.28;94727.50;4983750;28;20478;-58
2023/06/26 01:48:25;;;;;;;15.10;10.70;;;21.80;99.90;;;22.27;69.80;94716.81;4986798;28;20513;-58
2023/06/26 01:50:53;;;;;;;12.60;11.20;;;21.80;99.90;;;22.28;70.40;94721.13;4986583;28;21254;-62
2023/06/26 01:53:24;;;;;;;12.97;11.57;;;21.80;99.90;;;22.26;69.82;94717.81;4986982;28;20843;-57
2023/06/26 01:55:54;;;;;;;17.63;10.10;;;21.80;99.90;;;22.22;69.64;94713.97;4987127;28;20462;-63
2023/06/26 01:58:23;;;;;;;22.53;11.67;;;21.80;99.90;;;22.17;69.75;94715.41;4983850;28;20899;-57
2023/06/26 02:00:52;;;;;;;14.57;11.13;;;21.70;99.90;;;22.14;69.89;94718.53;4986541;28;20521;-62
2023/06/26 02:03:19;;;;;;;12.90;11.40;;;21.70;99.90;;;22.12;69.96;94719.78;4986411;28;20549;-62
2023/06/26 02:05:47;;;;;;;12.27;11.00;;;21.70;99.90;;;22.08;69.88;94718.56;4986758;28;20556;-61
2023/06/26 02:08:15;;;;;;;12.60;11.30;;;21.60;99.90;;;22.05;70.16;94722.50;4986728;28;20454;-62
2023/06/26 02:10:42;;;;;;;12.23;10.93;;;21.60;99.90;;;22.02;69.87;94720.25;4985626;28;20473;-62
2023/06/26 02:13:10;;;;;;;14.53;12.07;;;21.60;99.90;;;21.99;70.60;94718.00;4985668;28;20549;-66
2023/06/26 02:15:37;;;;;;;14.33;11.17;;;21.60;99.90;;;21.96;70.78;94716.56;4986879;28;20595;-63
2023/06/26 02:18:05;;;;;;;13.27;11.47;;;21.50;99.90;;;21.95;70.29;94706.06;4989518;28;20522;-59
2023/06/26 02:20:33;;;;;;;18.63;13.20;;;21.50;99.90;;;21.94;70.62;94712.47;4986806;28;20858;-63
2023/06/26 02:23:00;;;;;;;13.90;12.07;;;21.50;99.90;;;21.92;70.83;94718.03;4986813;28;20526;-63
2023/06/26 02:25:28;;;;;;;17.70;12.77;;;21.50;99.90;;;21.93;70.36;94710.81;4986283;28;20549;-63
2023/06/26 02:27:55;;;;;;;16.27;13.77;;;21.50;99.90;;;21.94;70.28;94712.47;4985710;28;20461;-62
2023/06/26 02:30:22;;;;;;;14.77;13.27;;;21.50;99.90;;;21.94;70.21;94709.78;4986822;28;20474;-62
2023/06/26 02:32:49;;;;;;;16.20;14.27;;;21.50;99.90;;;21.94;70.64;94712.47;4986239;28;20625;-62
2023/06/26 02:35:18;;;;;;;17.63;13.90;;;21.50;99.90;;;21.93;70.45;94716.19;4985968;28;20882;-62
2023/06/26 02:37:45;;;;;;;19.00;14.80;;;21.50;99.90;;;21.92;70.37;94718.03;4983403;28;21194;-59
2023/06/26 02:40:12;;;;;;;16.10;13.30;;;21.50;99.90;;;21.91;70.35;94712.91;4986117;28;20478;-63
2023/06/26 02:42:40;;;;;;;14.60;13.00;;;21.50;99.90;;;21.88;70.63;94724.03;4985946;28;20451;-58
2023/06/26 02:45:09;;;;;;;15.13;13.73;;;21.40;99.90;;;21.82;70.43;94721.16;4986094;28;21021;-64
2023/06/26 02:47:39;;;;;;;22.17;15.30;;;21.40;99.90;;;21.77;70.33;94723.66;4986087;28;20962;-62
2023/06/26 02:50:07;;;;;;;21.83;14.67;;;21.30;99.90;;;21.71;70.91;94723.69;4986809;28;20490;-57
2023/06/26 02:52:36;;;;;;;23.30;15.47;;;21.30;99.90;;;21.70;70.58;94730.09;4986944;28;20463;-62
2023/06/26 02:55:04;;;;;;;16.07;14.20;;;21.30;99.90;;;21.67;70.72;94725.97;4986316;28;20481;-62
2023/06/26 02:57:31;;;;;;;17.50;14.87;;;21.20;99.90;;;21.64;70.63;94721.03;4985882;28;20490;-58
2023/06/26 02:59:59;;;;;;;19.57;15.00;;;21.20;99.90;;;21.60;71.29;94723.31;4985659;28;21240;-61
2023/06/26 03:02:26;;;;;;;16.17;14.60;;;21.20;99.90;;;21.58;70.96;94721.88;4983107;28;20586;-62
2023/06/26 03:04:53;;;;;;;15.83;14.23;;;21.20;99.90;;;21.56;70.52;94732.00;4986104;28;20497;-62
2023/06/26 03:07:21;;;;;;;17.73;14.70;;;21.10;99.90;;;21.53;70.72;94732.41;4986577;28;20469;-59
2023/06/26 03:09:49;;;;;;;18.57;14.80;;;21.10;99.90;;;21.50;71.08;94722.94;4986025;28;20537;-59
2023/06/26 03:12:17;;;;;;;18.10;15.90;;;21.10;99.90;;;21.47;71.16;94734.88;4985813;28;20458;-59
2023/06/26 03:14:44;;;;;;;18.90;16.03;;;21.00;99.90;;;21.48;71.48;94733.00;4989780;28;20474;-62
2023/06/26 03:17:11;;;;;;;19.63;15.90;;;21.00;99.90;;;21.48;71.07;94730.34;4988660;28;20900;-59
2023/06/26 03:19:38;;;;;;;21.47;15.77;;;21.00;99.90;;;21.47;71.33;94724.16;4989031;28;20504;-63
2023/06/26 03:22:06;;;;;;;34.23;16.70;;;21.00;99.90;;;21.46;71.30;94727.88;4989410;28;20462;-64
2023/06/26 03:24:33;;;;;;;19.17;17.17;;;21.00;99.90;;;21.46;71.07;94732.41;4989941;28;20501;-62
2023/06/26 03:27:02;;;;;;;22.77;17.03;;;21.00;99.90;;;21.45;71.19;94731.56;4989243;28;21193;-58
2023/06/26 03:29:30;;;;;;;20.73;17.30;;;21.00;99.90;;;21.45;71.40;94726.22;4989404;28;20568;-64
2023/06/26 03:31:57;;;;;;;22.23;18.00;;;21.00;99.90;;;21.45;71.50;94725.41;4989039;28;20476;-59
2023/06/26 03:34:24;;;;;;;30.60;17.77;;;21.00;99.90;;;21.45;71.76;94720.88;4993338;28;20482;-63
2023/06/26 03:36:52;;;;;;;19.03;17.10;;;21.00;99.90;;;21.47;71.33;94734.03;4990997;28;20960;-59
2023/06/26 03:39:19;;;;;;;20.23;16.50;;;21.00;99.90;;;21.46;71.77;94733.22;4988657;28;20478;-58
2023/06/26 03:41:46;;;;;;;19.47;17.20;;;21.00;99.90;;;21.46;71.16;94729.72;4987967;28;21002;-58
2023/06/26 03:44:15;;;;;;;20.87;17.40;;;21.00;99.90;;;21.45;71.73;94726.22;4988594;28;20490;-64
2023/06/26 03:46:42;;;;;;;19.50;17.10;;;21.00;99.90;;;21.48;71.62;94733.00;4992101;28;20451;-62
2023/06/26 03:49:10;;;;;;;17.53;15.27;;;21.00;99.90;;;21.52;71.81;94730.75;4986768;28;20552;-59
2023/06/26 03:51:37;;;;;;;19.67;17.20;;;21.00;99.90;;;21.55;71.73;94730.34;4992564;28;20551;-61
2023/06/26 03:54:05;;;;;;;19.60;17.43;;;21.10;99.90;;;21.59;71.55;94731.56;4988037;28;21033;-59
2023/06/26 03:56:32;;;;;;;20.97;17.10;;;21.10;99.90;;;21.60;71.62;94725.19;4989121;28;20975;-57
2023/06/26 03:59:00;;;;;;;19.37;16.93;;;21.20;99.90;;;21.62;71.53;94729.28;4990909;28;21058;-61
2023/06/26 04:01:28;;;;;;;17.80;15.97;;;21.10;99.90;;;21.64;71.03;94727.22;4989964;28;20839;-63
2023/06/26 04:03:56;;;;;;;18.30;15.57;;;21.20;99.90;;;21.65;71.06;94731.53;4988024;28;20504;-58
2023/06/26 04:06:23;;;;;;;18.83;16.90;;;21.20;99.90;;;21.69;70.69;94726.59;4986968;28;20470;-62
2023/06/26 04:08:50;;;;;;;18.07;16.00;;;21.20;99.90;;;21.73;71.39;94733.16;4982837;28;20493;-62
2023/06/26 04:11:17;;;;;;;17.60;15.77;;;21.30;99.90;;;21.77;70.90;94728.22;4984360;28;21145;-60
2023/06/26 04:13:45;;;;;;;27.10;17.70;;;21.30;99.90;;;21.81;70.96;94732.91;4986252;28;20460;-57
2023/06/26 04:16:12;;;;;;;22.77;16.03;;;21.30;99.90;;;21.89;71.12;94731.00;4986635;28;20482;-57
2023/06/26 04:18:41;;;;;;;19.50;16.77;;;21.40;99.90;;;21.95;70.71;94739.03;4988181;28;20545;-63
2023/06/26 04:21:11;;;;;;;23.33;15.23;;;21.50;99.90;;;22.02;70.11;94741.66;4990081;28;20533;-58
2023/06/26 04:23:38;;;;;;;16.80;15.07;;;21.50;99.90;;;22.08;70.17;94740.00;4986053;28;20477;-62
2023/06/26 04:26:05;;;;;;;20.90;15.50;;;21.60;99.90;;;22.14;69.90;94734.59;4986756;28;20537;-63
2023/06/26 04:28:33;;;;;;;15.00;13.50;;;21.70;99.90;;;22.26;69.63;94739.25;4987736;28;20853;-63
2023/06/26 04:31:00;;;;;;;16.40;14.70;;;21.70;99.90;;;22.34;69.88;94741.72;4986511;28;20497;-59
2023/06/26 04:33:27;;;;;;;21.80;16.00;;;21.80;99.90;;;22.39;69.89;94739.22;4983194;28;20537;-59
2023/06/26 04:35:56;;;;;;;34.03;18.30;;;21.90;99.90;;;22.46;69.42;94737.28;4985533;28;20531;-57
2023/06/26 04:38:24;;;;;;;20.73;15.63;;;21.90;99.90;;;22.56;69.46;94744.88;4986813;28;20986;-66
2023/06/26 04:40:51;;;;;;;38.00;19.77;;;22.00;99.90;;;22.62;69.23;94745.84;4988190;28;20525;-58
2023/06/26 04:43:18;;;;;;;28.30;17.10;;;22.10;99.90;;;22.68;68.77;94744.97;4986371;28;20551;-59
2023/06/26 04:45:46;;;;;;;55.27;22.53;;;22.20;99.90;;;22.73;69.16;94747.84;4984785;28;20564;-62
2023/06/26 04:48:13;;;;;;;27.70;16.50;;;22.20;99.90;;;22.80;68.52;94743.22;4988631;28;20458;-57
2023/06/26 04:50:41;;;;;;;25.20;16.63;;;22.30;99.90;;;22.88;68.62;94745.66;4988448;28;20511;-62
2023/06/26 04:53:10;;;;;;;17.77;15.70;;;22.30;99.90;;;22.92;68.09;94746.03;4987691;28;20465;-57
2023/06/26 04:55:37;;;;;;;18.77;14.53;;;22.40;99.90;;;22.90;68.03;94746.25;4988172;28;20469;-61
2023/06/26 04:58:04;;;;;;;16.47;14.67;;;22.40;99.90;;;22.89;68.44;94747.28;4988351;28;20450;-62
2023/06/26 05:00:32;;;;;;;17.60;14.03;;;22.40;99.90;;;22.85;67.63;94747.94;4988047;28;20834;-63
2023/06/26 05:03:01;;;;;;;15.63;14.03;;;22.40;99.90;;;22.81;67.80;94750.25;4990130;28;20493;-62
2023/06/26 05:05:28;;;;;;;18.10;15.10;;;22.40;99.90;;;22.80;68.26;94751.28;4987960;28;20497;-57
2023/06/26 05:07:56;;;;;;;16.20;14.40;;;22.40;99.90;;;22.81;67.91;94752.91;4987657;28;20538;-62
2023/06/26 05:10:25;;;;;;;19.10;13.97;;;22.40;99.90;;;22.83;68.02;94753.50;4984179;28;20481;-57
2023/06/26 05:12:52;;;;;;;22.87;14.23;;;22.30;99.90;;;22.86;67.46;94753.06;4989825;28;20572;-57
2023/06/26 05:15:19;;;;;;;22.60;16.23;;;22.40;99.90;;;22.90;67.42;94756.97;4988718;28;20490;-63
2023/06/26 05:17:47;;;;;;;20.40;14.43;;;22.40;99.90;;;22.95;67.69;94760.88;4987073;28;20516;-61
2023/06/26 05:20:14;;;;;;;20.97;14.47;;;22.40;99.90;;;22.98;67.69;94752.38;4987419;28;20486;-62
2023/06/26 05:22:42;;;;;;;15.07;13.53;;;22.50;99.90;;;23.01;67.16;94760.00;4987934;28;20462;-64
2023/06/26 05:25:11;;;;;;;23.57;15.50;;;22.50;99.90;;;23.02;67.45;94759.75;4985866;28;20561;-63
2023/06/26 05:27:40;;;;;;;18.10;14.37;;;22.50;99.90;;;23.04;67.23;94762.22;4987305;28;20970;-57
2023/06/26 05:30:10;;;;;;;18.00;14.93;;;22.60;99.90;;;23.06;67.64;94763.63;4986236;28;20482;-62
2023/06/26 05:32:39;;;;;;;14.83;13.37;;;22.60;99.90;;;23.07;66.72;94764.47;4982361;28;20493;-62
2023/06/26 05:35:08;;;;;;;16.47;14.60;;;22.60;99.90;;;23.07;66.29;94762.59;4986343;28;20474;-64
2023/06/26 05:37:36;;;;;;;14.57;13.10;;;22.60;99.90;;;23.05;66.26;94770.06;4986559;28;20465;-58
2023/06/26 05:40:05;;;;;;;23.80;13.30;;;22.60;99.90;;;23.04;67.17;94771.09;4985119;28;20513;-58
2023/06/26 05:42:33;;;;;;;23.73;15.20;;;22.60;99.90;;;23.05;67.01;94769.22;4987452;28;20910;-59
2023/06/26 05:45:02;;;;;;;16.97;14.50;;;22.60;99.90;;;23.09;66.95;94773.16;4987108;28;20498;-62
2023/06/26 05:47:29;;;;;;;18.50;14.07;;;22.60;99.90;;;23.15;66.50;94758.03;4983744;28;20458;-62
2023/06/26 05:49:57;;;;;;;18.53;13.97;;;22.70;99.90;;;23.25;66.92;94772.59;4987647;28;20635;-62
2023/06/26 05:52:25;;;;;;;20.70;14.20;;;22.70;99.90;;;23.35;65.84;94766.69;4987065;28;20510;-62
2023/06/26 05:54:54;;;;;;;18.27;14.57;;;22.80;99.90;;;23.43;66.08;94774.44;4989225;28;20554;-64
2023/06/26 05:57:22;;;;;;;14.27;12.73;;;22.90;99.90;;;23.51;65.95;94769.84;4990939;28;20457;-64
2023/06/26 05:59:49;;;;;;;17.30;13.53;;;23.00;99.90;;;23.56;64.98;94770.84;4987240;28;20473;-63
2023/06/26 06:02:18;;;;;;;16.10;12.90;;;23.00;99.90;;;23.62;65.63;94774.47;4986294;28;20469;-57
2023/06/26 06:04:45;;;;;;;18.90;13.87;;;23.10;99.90;;;23.68;65.69;94781.63;4987009;28;20489;-63
2023/06/26 06:07:13;;;;;;;16.47;14.10;;;23.10;99.90;;;23.74;64.97;94780.72;4985680;28;20466;-57
2023/06/26 06:09:40;;;;;;;19.53;14.03;;;23.20;99.90;;;23.80;65.42;94779.03;4987366;28;20485;-63
2023/06/26 06:12:08;;;;;;;20.90;13.50;;;23.30;99.90;;;23.86;64.75;94775.47;4987653;28;20462;-57
2023/06/26 06:14:36;;;;;;;13.67;12.27;;;23.30;99.90;;;23.94;64.85;94780.53;4986405;28;20470;-62
2023/06/26 06:17:03;;;;;;;14.50;13.00;;;23.40;99.90;;;24.06;64.80;94777.91;4986861;28;20457;-58
2023/06/26 06:19:32;;;;;;;16.13;12.87;;;23.50;99.90;;;24.20;63.70;94783.09;4988532;28;20473;-56
2023/06/26 06:21:59;;;;;;;12.57;11.40;;;23.60;99.90;;;24.33;63.65;94773.00;4986621;28;20608;-63
2023/06/26 06:24:26;;;;;;;11.93;10.67;;;23.80;99.90;;;24.50;63.07;94772.34;4985919;28;20497;-63
2023/06/26 06:26:54;;;;;;;13.10;11.70;;;23.90;99.90;;;24.71;63.06;94765.66;4986047;28;20465;-62
2023/06/26 06:29:21;;;;;;;12.00;10.90;;;24.10;99.90;;;24.94;62.70;94762.19;4986426;28;20596;-58
2023/06/26 06:31:48;;;;;;;11.93;10.47;;;24.30;99.90;;;25.17;61.92;94763.25;4985892;28;20454;-63
2023/06/26 06:34:16;;;;;;;11.20;10.20;;;24.50;99.90;;;25.36;61.31;94763.97;4984977;28;20478;-63
2023/06/26 06:36:44;;;;;;;10.87;9.90;;;24.70;99.90;;;25.54;60.86;94765.72;4988580;28;20462;-62
2023/06/26 06:39:12;;;;;;;18.70;10.70;;;24.90;99.90;;;25.74;60.21;94759.97;4987301;28;20482;-63
2023/06/26 06:41:39;;;;;;;10.80;9.80;;;25.10;99.90;;;25.96;59.81;94760.13;4986359;28;20450;-62
2023/06/26 06:44:07;;;;;;;11.07;9.97;;;25.30;99.90;;;26.16;59.25;94759.75;4987684;28;20556;-62
2023/06/26 06:46:34;;;;;;;10.70;9.80;;;25.50;99.90;;;26.37;58.89;94763.66;4988406;28;20553;-58
2023/06/26 06:49:01;;;;;;;13.37;10.30;;;25.70;99.90;;;26.60;58.33;94756.50;4985860;28;20462;-58
2023/06/26 06:51:28;;;;;;;11.40;9.97;;;25.90;99.90;;;26.83;57.27;94761.81;4987869;28;20465;-62
2023/06/26 06:53:57;;;;;;;12.90;10.63;;;26.10;99.90;;;27.02;56.56;94766.97;4986310;28;20990;-63
2023/06/26 06:56:24;;;;;;;10.10;9.20;;;26.30;99.50;;;27.13;56.53;94771.44;4989346;28;20461;-57
2023/06/26 06:58:52;;;;;;;16.33;9.60;;;26.50;99.80;;;27.17;56.53;94761.81;4985999;28;20454;-63
2023/06/26 07:01:19;;;;;;;15.53;9.00;;;26.50;99.20;;;27.30;56.15;94762.53;4990562;28;20495;-62
2023/06/26 07:03:46;;;;;;;11.07;9.47;;;26.60;99.00;;;27.51;55.80;94756.38;4985725;28;21075;-59
2023/06/26 07:06:13;;;;;;;10.70;9.60;;;26.80;99.00;;;27.73;55.52;94755.56;4989532;28;20611;-58
2023/06/26 07:08:41;;;;;;;14.70;9.80;;;27.00;98.80;;;27.89;54.93;94760.13;4983463;28;20461;-62
2023/06/26 07:11:10;;;;;;;12.37;9.00;;;27.20;98.30;;;27.93;51.11;94757.72;4985226;28;20522;-58
2023/06/26 07:13:37;;;;;;;8.53;7.77;;;27.30;95.20;;;27.95;53.65;94763.75;4986412;28;20470;-63
2023/06/26 07:16:05;;;;;;;8.90;8.17;;;27.30;97.10;;;28.05;52.94;94752.22;4985831;28;21367;-57
2023/06/26 07:18:32;;;;;;;8.60;6.80;;;27.40;96.40;;;28.14;52.74;94755.31;4986119;28;20457;-59
2023/06/26 07:20:59;;;;;;;8.77;7.73;;;27.50;95.70;;;28.15;52.62;94759.63;4986044;28;20998;-59
2023/06/26 07:23:27;;;;;;;8.70;7.90;;;27.50;95.80;;;28.17;52.95;94760.22;4988706;28;20464;-58
2023/06/26 07:25:54;;;;;;;12.13;8.83;;;27.50;95.60;;;28.23;52.74;94751.88;4985812;28;20509;-61
2023/06/26 07:28:23;;;;;;;9.90;9.10;;;27.60;95.50;;;28.35;53.21;94753.63;4985668;28;20533;-64
2023/06/26 07:30:50;;;;;;;11.97;8.50;;;27.60;95.80;;;28.51;52.95;94751.91;4986094;28;20305;-59
2023/06/26 07:33:18;;;;;;;14.63;7.30;;;27.80;95.60;;;28.65;52.37;94749.66;4984578;28;20703;-63
2023/06/26 07:35:45;;;;;;;7.83;7.23;;;27.90;95.00;;;28.73;52.10;94747.28;4985672;28;20723;-63
2023/06/26 07:38:13;;;;;;;8.40;7.70;;;28.00;94.50;;;28.85;51.85;94752.53;4985843;28;20203;-63
2023/06/26 07:40:40;;;;;;;16.23;8.23;;;28.20;94.60;;;28.97;52.04;94750.47;4982335;28;20609;-59
2023/06/26 07:43:07;;;;;;;9.23;8.30;;;28.20;94.50;;;29.15;51.76;94756.56;4986006;28;20207;-62
2023/06/26 07:45:36;;;;;;;8.47;7.43;;;28.40;94.30;;;29.32;50.06;94742.88;4985631;28;20239;-58
2023/06/26 07:48:03;;;;;;;9.03;8.17;;;28.60;93.40;;;29.48;50.84;94754.63;4985769;28;20199;-58
2023/06/26 07:50:31;;;;;;;9.63;8.63;;;28.70;93.30;;;29.60;50.01;94757.94;4986225;28;20616;-63
2023/06/26 07:52:59;;;;;;;15.90;7.87;;;28.90;93.20;;;29.68;49.59;94756.63;4985935;28;20217;-59
2023/06/26 07:55:27;;;;;;;12.93;6.73;;;29.00;92.60;;;29.68;48.83;94753.94;4986154;28;20250;-59
2023/06/26 07:57:55;;;;;;;7.83;7.10;;;29.00;91.40;;;29.66;49.29;94759.63;4985876;28;20294;-64
2023/06/26 08:00:22;;;;;;;7.97;7.17;;;29.00;91.50;;;29.68;48.67;94762.06;4989353;28;20741;-59
2023/06/26 08:02:51;;;;;;;9.47;7.10;;;29.00;91.40;;;29.76;49.07;94753.44;4986265;28;20290;-59
2023/06/26 08:05:18;;;;;;;10.53;6.50;;;29.10;90.90;;;29.85;49.25;94756.47;4985399;28;20230;-64
2023/06/26 08:07:46;;;;;;;10.60;6.90;;;29.10;91.10;;;29.88;49.22;94753.25;4987724;28;20206;-59
2023/06/26 08:10:14;;;;;;;6.70;6.17;;;29.20;91.00;;;29.82;48.34;94754.31;4989835;28;20231;-62
2023/06/26 08:12:42;;;;;;;7.60;6.60;;;29.20;90.50;;;29.78;48.50;94755.91;4990050;28;20225;-64
2023/06/26 08:15:10;;;;;;;7.30;6.20;;;29.20;90.60;;;29.82;48.71;94748.88;4989108;28;20293;-64
2023/06/26 08:17:37;;;;;;;6.17;5.60;;;29.20;90.40;;;29.89;47.78;94754.09;4988731;28;20222;-64
2023/06/26 08:20:08;;;;;;;6.40;5.90;;;29.20;88.20;;;29.97;47.41;94754.38;4989066;28;20230;-57
2023/06/26 08:22:36;;;;;;;14.75;7.18;;;29.30;88.60;;;30.04;47.33;94748.72;4988986;28;20203;-63
2023/06/26 08:25:05;;;;;;;7.50;6.80;;;29.30;86.60;;;30.06;47.55;94749.25;4988852;28;20227;-57
2023/06/26 08:27:33;;;;;;;9.70;7.10;;;29.40;87.40;;;30.17;47.81;94755.53;4988283;28;20207;-63
2023/06/26 08:30:00;;;;;;;12.17;6.70;;;29.50;87.40;;;30.31;47.31;94755.84;4988138;28;20246;-64
2023/06/26 08:32:27;;;;;;;6.20;5.10;;;29.60;87.20;;;30.36;46.81;94751.25;4987896;28;20330;-58
2023/06/26 08:34:54;;;;;;;5.90;5.50;;;29.70;85.70;;;30.45;46.69;94750.78;4988054;28;20646;-63
2023/06/26 08:37:23;;;;;;;7.57;6.88;;;29.80;84.90;;;30.62;46.51;94751.34;4989394;28;20253;-60
2023/06/26 08:39:50;;;;;;;10.15;5.72;;;29.90;84.70;;;30.82;45.92;94750.53;4990201;28;20707;-58
2023/06/26 08:42:18;;;;;;;10.18;5.50;;;30.10;83.40;;;30.81;43.39;94753.53;4988769;28;20202;-59
2023/06/26 08:44:45;;;;;;;5.97;5.55;;;30.10;78.90;;;30.69;44.53;94751.91;4988285;28;20703;-65
2023/06/26 08:47:13;;;;;;;7.32;5.10;;;30.10;79.70;;;30.69;45.07;94757.34;4988079;28;20638;-63
2023/06/26 08:49:47;;;;;;;5.93;5.32;;;30.00;80.70;;;30.65;45.06;94755.44;4987680;28;20226;-57
2023/06/26 08:52:19;;;;;;;6.10;5.50;;;30.00;80.70;;;30.56;45.38;94753.22;4987201;28;20626;-63
2023/06/26 08:54:50;;;;;;;7.95;5.90;;;30.00;80.60;;;30.46;45.55;94752.38;4985268;28;20305;-58
2023/06/26 08:57:19;;;;;;;6.65;5.90;;;29.90;80.80;;;30.31;45.59;94756.66;4985687;28;20575;-57
2023/06/26 08:59:48;;;;;;;10.30;6.70;;;29.80;80.50;;;30.17;45.38;94753.63;4987908;28;20233;-64
2023/06/26 09:02:16;;;;;;;8.40;6.38;;;29.60;80.70;;;30.02;46.18;94748.16;4986092;28;20265;-57
2023/06/26 09:04:43;;;;;;;6.45;5.65;;;29.50;80.20;;;29.84;45.62;94741.31;4986332;28;20226;-57
2023/06/26 09:07:10;;;;;;;7.60;5.80;;;29.30;80.50;;;29.71;45.86;94741.75;4987822;28;20249;-57
2023/06/26 09:09:38;;;;;;;6.43;5.77;;;29.20;80.90;;;29.58;45.33;94743.84;4987048;28;20262;-64
2023/06/26 09:12:08;;;;;;;8.85;6.43;;;29.10;80.00;;;29.55;46.37;94741.66;4984580;28;20500;-58
2023/06/26 09:14:36;;;;;;;10.68;7.38;;;29.00;81.00;;;29.58;46.11;94741.16;4987929;28;20637;-60
2023/06/26 09:17:04;;;;;;;7.60;6.20;;;29.00;80.30;;;29.53;45.02;94740.28;4987889;28;20211;-64
2023/06/26 09:19:31;;;;;;;5.73;5.17;;;28.90;78.70;;;29.43;45.85;94738.34;4984449;28;20281;-63
2023/06/26 09:21:58;;;;;;;7.20;6.50;;;28.90;80.10;;;29.41;45.36;94733.19;4987319;28;20227;-59
2023/06/26 09:24:26;;;;;;;5.67;5.20;;;28.80;79.80;;;29.54;45.61;94734.59;4985788;28;20226;-65
2023/06/26 09:26:54;;;;;;;9.40;5.70;;;28.90;80.20;;;29.65;46.10;94739.03;4987909;28;20313;-59
2023/06/26 09:29:23;;;;;;;7.57;5.80;;;29.00;80.50;;;29.75;45.93;94743.69;4987359;28;20223;-58
2023/06/26 09:31:52;;;;;;;8.68;5.60;;;29.10;79.80;;;29.77;45.66;94736.09;4987676;28;20199;-58
2023/06/26 09:34:20;;;;;;;6.93;6.27;;;29.10;78.70;;;29.73;44.46;94742.28;4988237;28;20229;-64
2023/06/26 09:36:49;;;;;;;6.60;6.00;;;29.20;77.20;;;29.59;44.25;94740.06;4987770;28;21123;-58
2023/06/26 09:39:16;;;;;;;7.17;6.20;;;29.00;75.60;;;29.44;45.47;94737.28;4985848;28;20317;-57
2023/06/26 09:41:44;;;;;;;8.27;7.20;;;28.90;77.70;;;29.33;45.84;94736.41;4987141;28;20215;-64
2023/06/26 09:44:13;;;;;;;7.90;6.20;;;28.80;78.10;;;29.32;45.86;94737.47;4987995;28;20223;-65
2023/06/26 09:46:44;;;;;;;8.73;6.20;;;28.80;79.00;;;29.37;45.39;94742.91;4986736;28;20222;-58
2023/06/26 09:49:12;;;;;;;9.10;6.20;;;28.80;78.60;;;29.46;44.82;94733.22;4987028;28;20223;-59
2023/06/26 09:51:40;;;;;;;5.70;5.20;;;28.80;77.90;;;29.67;44.83;94733.34;4986963;28;20265;-58
2023/06/26 09:54:08;;;;;;;10.07;6.03;;;29.00;78.00;;;29.91;44.53;94741.88;4986414;28;20202;-64
2023/06/26 09:56:36;;;;;;;6.87;6.27;;;29.20;76.80;;;30.07;43.50;94733.78;4987048;28;20211;-64
2023/06/26 09:59:04;;;;;;;6.20;5.40;;;29.40;75.30;;;30.17;43.76;94736.56;4987720;28;20269;-58
2023/06/26 10:01:32;;;;;;;8.48;6.40;;;29.50;75.60;;;30.31;43.40;94731.44;4985488;28;20207;-65
2023/06/26 10:04:01;;;;;;;10.65;5.82;;;29.60;75.60;;;30.44;43.70;94741.78;4985408;28;20261;-66
2023/06/26 10:06:31;;;;;;;11.48;5.78;;;29.70;75.30;;;30.47;42.36;94735.03;4990102;28;20237;-57
2023/06/26 10:09:01;;;;;;;7.82;5.72;;;29.80;72.90;;;30.37;43.22;94728.47;4986746;28;20214;-63
2023/06/26 10:11:38;;;;;;;7.00;6.32;;;29.70;73.60;;;30.28;42.05;94735.50;4983140;28;20199;-58
2023/06/26 10:14:05;;;;;;;6.63;5.93;;;29.70;71.30;;;30.14;42.69;94728.94;4986661;28;20285;-59